Terminal Aerodrome Forecast
Issued by NWS Jackson, KY

Home | Current Version | Previous Version | Text Only | Print | Product List | Glossary On
Versions: 1 2 3 4 5 6 7 8 9 10 11 12
000
FTUS43 KJKL 270528
TAFLOZ
TAF
KLOZ 270528Z 2706/2806 VRB03KT P6SM BKN070
     FM271000 VRB03KT P6SM VCSH BKN035
     FM271100 VRB03KT P6SM BKN045
     FM271400 VRB03KT P6SM VCTS BKN035CB
     FM280000 VRB03KT P6SM BKN100=

USA.gov is the U.S. government's official web portal to all federal, state and local government web resources and services.